sensor_id;sensor_type;location;lat;lon;timestamp;temperature;humidity
21318;DHT22;10818;50.830;6.524;2022-07-22T00:04:33;19.10;99.90
21318;DHT22;10818;50.830;6.524;2022-07-22T00:09:33;19.10;99.90
21318;DHT22;10818;50.830;6.524;2022-07-22T00:14:34;19.20;99.90
21318;DHT22;10818;50.830;6.524;2022-07-22T00:19:34;19.10;99.90
21318;DHT22;10818;50.830;6.524;2022-07-22T00:24:35;19.10;99.90
21318;DHT22;10818;50.830;6.524;2022-07-22T00:29:35;19.10;99.90
21318;DHT22;10818;50.830;6.524;2022-07-22T00:34:36;19.10;99.90
21318;DHT22;10818;50.830;6.524;2022-07-22T00:39:36;19.10;99.90
21318;DHT22;10818;50.830;6.524;2022-07-22T00:44:37;19.10;99.90
21318;DHT22;10818;50.830;6.524;2022-07-22T00:49:38;19.00;99.90
21318;DHT22;10818;50.830;6.524;2022-07-22T00:54:38;19.00;99.90
21318;DHT22;10818;50.830;6.524;2022-07-22T00:59:39;19.00;99.90
21318;DHT22;10818;50.830;6.524;2022-07-22T01:04:39;19.00;99.90
21318;DHT22;10818;50.830;6.524;2022-07-22T01:09:44;19.00;99.90
21318;DHT22;10818;50.830;6.524;2022-07-22T01:14:44;18.90;99.90
21318;DHT22;10818;50.830;6.524;2022-07-22T01:19:45;18.90;99.90
21318;DHT22;10818;50.830;6.524;2022-07-22T01:24:45;19.00;99.90
21318;DHT22;10818;50.830;6.524;2022-07-22T01:29:46;18.90;99.90
21318;DHT22;10818;50.830;6.524;2022-07-22T01:34:46;19.00;99.90
21318;DHT22;10818;50.830;6.524;2022-07-22T01:39:47;19.00;99.90
21318;DHT22;10818;50.830;6.524;2022-07-22T01:44:47;18.90;99.90
21318;DHT22;10818;50.830;6.524;2022-07-22T01:49:48;18.90;99.90
21318;DHT22;10818;50.830;6.524;2022-07-22T01:54:48;18.80;99.90
21318;DHT22;10818;50.830;6.524;2022-07-22T01:59:49;18.90;99.90
21318;DHT22;10818;50.830;6.524;2022-07-22T02:04:49;18.90;99.90
21318;DHT22;10818;50.830;6.524;2022-07-22T02:09:50;18.80;99.90
21318;DHT22;10818;50.830;6.524;2022-07-22T02:14:50;18.80;99.90
21318;DHT22;10818;50.830;6.524;2022-07-22T02:19:51;18.80;99.90
21318;DHT22;10818;50.830;6.524;2022-07-22T02:24:51;18.80;99.90
21318;DHT22;10818;50.830;6.524;2022-07-22T02:29:52;18.80;99.90
21318;DHT22;10818;50.830;6.524;2022-07-22T02:34:52;18.80;99.90
21318;DHT22;10818;50.830;6.524;2022-07-22T02:39:52;18.80;99.90
21318;DHT22;10818;50.830;6.524;2022-07-22T02:44:53;18.80;99.90
21318;DHT22;10818;50.830;6.524;2022-07-22T02:49:53;18.90;99.90
21318;DHT22;10818;50.830;6.524;2022-07-22T02:54:54;18.80;99.90
21318;DHT22;10818;50.830;6.524;2022-07-22T02:59:54;18.80;99.90
21318;DHT22;10818;50.830;6.524;2022-07-22T03:04:55;18.80;99.90
21318;DHT22;10818;50.830;6.524;2022-07-22T03:09:55;18.80;99.90
21318;DHT22;10818;50.830;6.524;2022-07-22T03:14:56;18.90;99.90
21318;DHT22;10818;50.830;6.524;2022-07-22T03:19:56;18.90;99.90
21318;DHT22;10818;50.830;6.524;2022-07-22T03:24:57;18.80;99.90
21318;DHT22;10818;50.830;6.524;2022-07-22T03:29:57;18.80;99.90
21318;DHT22;10818;50.830;6.524;2022-07-22T03:34:57;18.80;99.90
21318;DHT22;10818;50.830;6.524;2022-07-22T03:39:58;18.80;99.90
21318;DHT22;10818;50.830;6.524;2022-07-22T03:44:58;18.80;99.90
21318;DHT22;10818;50.830;6.524;2022-07-22T03:49:59;18.90;99.90
21318;DHT22;10818;50.830;6.524;2022-07-22T03:54:59;18.90;99.90
21318;DHT22;10818;50.830;6.524;2022-07-22T04:00:00;18.80;99.90
21318;DHT22;10818;50.830;6.524;2022-07-22T04:05:00;18.70;99.90
21318;DHT22;10818;50.830;6.524;2022-07-22T04:10:01;18.80;99.90
21318;DHT22;10818;50.830;6.524;2022-07-22T04:15:07;18.70;99.90
21318;DHT22;10818;50.830;6.524;2022-07-22T04:20:08;18.70;99.90
21318;DHT22;10818;50.830;6.524;2022-07-22T04:25:09;18.70;99.90
21318;DHT22;10818;50.830;6.524;2022-07-22T04:30:09;18.70;99.90
21318;DHT22;10818;50.830;6.524;2022-07-22T04:35:10;18.80;99.90
21318;DHT22;10818;50.830;6.524;2022-07-22T04:40:10;18.80;99.90
21318;DHT22;10818;50.830;6.524;2022-07-22T04:45:11;18.90;99.90
21318;DHT22;10818;50.830;6.524;2022-07-22T04:50:12;18.90;99.90
21318;DHT22;10818;50.830;6.524;2022-07-22T04:55:12;19.00;99.90
21318;DHT22;10818;50.830;6.524;2022-07-22T05:00:13;19.00;99.90
21318;DHT22;10818;50.830;6.524;2022-07-22T05:05:15;19.00;99.90
21318;DHT22;10818;50.830;6.524;2022-07-22T05:10:16;19.00;99.90
21318;DHT22;10818;50.830;6.524;2022-07-22T05:15:16;18.90;99.90
21318;DHT22;10818;50.830;6.524;2022-07-22T05:20:17;19.00;99.90
21318;DHT22;10818;50.830;6.524;2022-07-22T05:25:17;19.10;99.90
21318;DHT22;10818;50.830;6.524;2022-07-22T05:30:18;19.20;99.90
21318;DHT22;10818;50.830;6.524;2022-07-22T05:35:19;19.30;99.90
21318;DHT22;10818;50.830;6.524;2022-07-22T05:40:19;19.30;99.90
21318;DHT22;10818;50.830;6.524;2022-07-22T05:45:20;19.40;99.90
21318;DHT22;10818;50.830;6.524;2022-07-22T05:50:20;19.50;99.90
21318;DHT22;10818;50.830;6.524;2022-07-22T05:55:21;19.60;99.90
21318;DHT22;10818;50.830;6.524;2022-07-22T06:00:21;19.60;99.90
21318;DHT22;10818;50.830;6.524;2022-07-22T06:05:22;19.60;99.90
21318;DHT22;10818;50.830;6.524;2022-07-22T06:10:22;19.70;99.90
21318;DHT22;10818;50.830;6.524;2022-07-22T06:15:23;19.80;99.90
21318;DHT22;10818;50.830;6.524;2022-07-22T06:20:24;19.80;99.90
21318;DHT22;10818;50.830;6.524;2022-07-22T06:25:24;19.80;99.90
21318;DHT22;10818;50.830;6.524;2022-07-22T06:30:24;19.80;99.90
21318;DHT22;10818;50.830;6.524;2022-07-22T06:35:26;19.90;99.90
21318;DHT22;10818;50.830;6.524;2022-07-22T06:40:27;20.00;99.90
21318;DHT22;10818;50.830;6.524;2022-07-22T06:45:27;20.00;99.90
21318;DHT22;10818;50.830;6.524;2022-07-22T06:50:28;20.00;99.90
21318;DHT22;10818;50.830;6.524;2022-07-22T06:55:28;20.20;99.90
21318;DHT22;10818;50.830;6.524;2022-07-22T07:00:29;20.20;99.90
21318;DHT22;10818;50.830;6.524;2022-07-22T07:05:29;20.40;99.90
21318;DHT22;10818;50.830;6.524;2022-07-22T07:10:30;20.50;99.90
21318;DHT22;10818;50.830;6.524;2022-07-22T07:15:30;20.50;99.90
21318;DHT22;10818;50.830;6.524;2022-07-22T07:20:31;20.60;99.90
21318;DHT22;10818;50.830;6.524;2022-07-22T07:25:31;20.80;99.90
21318;DHT22;10818;50.830;6.524;2022-07-22T07:30:32;20.90;99.90
21318;DHT22;10818;50.830;6.524;2022-07-22T07:35:32;21.00;99.90
21318;DHT22;10818;50.830;6.524;2022-07-22T07:40:33;21.20;99.90
21318;DHT22;10818;50.830;6.524;2022-07-22T07:45:33;21.30;99.90
21318;DHT22;10818;50.830;6.524;2022-07-22T07:50:34;21.60;99.90
21318;DHT22;10818;50.830;6.524;2022-07-22T07:55:34;21.80;99.90
21318;DHT22;10818;50.830;6.524;2022-07-22T08:00:39;21.90;99.90
21318;DHT22;10818;50.830;6.524;2022-07-22T08:05:42;22.10;99.90
21318;DHT22;10818;50.830;6.524;2022-07-22T08:10:43;22.20;99.90
21318;DHT22;10818;50.830;6.524;2022-07-22T08:15:43;22.20;99.90
21318;DHT22;10818;50.830;6.524;2022-07-22T08:20:44;22.50;99.90
21318;DHT22;10818;50.830;6.524;2022-07-22T08:25:44;22.60;99.90
21318;DHT22;10818;50.830;6.524;2022-07-22T08:30:45;22.60;99.90
21318;DHT22;10818;50.830;6.524;2022-07-22T08:35:45;23.00;99.90
21318;DHT22;10818;50.830;6.524;2022-07-22T08:40:46;23.40;99.90
21318;DHT22;10818;50.830;6.524;2022-07-22T08:45:46;23.60;99.90
21318;DHT22;10818;50.830;6.524;2022-07-22T08:50:48;23.90;99.90
21318;DHT22;10818;50.830;6.524;2022-07-22T08:55:48;24.10;99.90
21318;DHT22;10818;50.830;6.524;2022-07-22T09:01:03;24.40;99.90
21318;DHT22;10818;50.830;6.524;2022-07-22T09:06:03;24.60;99.90
21318;DHT22;10818;50.830;6.524;2022-07-22T09:11:19;24.90;99.90
21318;DHT22;10818;50.830;6.524;2022-07-22T09:21:44;25.50;99.90
21318;DHT22;10818;50.830;6.524;2022-07-22T09:26:46;25.90;99.90
21318;DHT22;10818;50.830;6.524;2022-07-22T09:31:49;26.60;99.90
21318;DHT22;10818;50.830;6.524;2022-07-22T09:36:53;27.00;99.90
21318;DHT22;10818;50.830;6.524;2022-07-22T09:42:04;27.00;99.90
21318;DHT22;10818;50.830;6.524;2022-07-22T09:47:05;27.40;99.90
21318;DHT22;10818;50.830;6.524;2022-07-22T09:52:06;27.40;99.90
21318;DHT22;10818;50.830;6.524;2022-07-22T09:57:06;27.90;99.90
21318;DHT22;10818;50.830;6.524;2022-07-22T10:02:07;28.50;99.90
21318;DHT22;10818;50.830;6.524;2022-07-22T10:07:08;28.60;99.90
21318;DHT22;10818;50.830;6.524;2022-07-22T10:12:09;28.50;99.90
21318;DHT22;10818;50.830;6.524;2022-07-22T10:17:10;29.10;99.90
21318;DHT22;10818;50.830;6.524;2022-07-22T10:22:55;29.20;99.90
21318;DHT22;10818;50.830;6.524;2022-07-22T10:27:47;29.40;99.90
21318;DHT22;10818;50.830;6.524;2022-07-22T10:38:06;29.40;99.90
21318;DHT22;10818;50.830;6.524;2022-07-22T10:43:10;29.30;99.90
21318;DHT22;10818;50.830;6.524;2022-07-22T10:48:12;28.90;99.90
21318;DHT22;10818;50.830;6.524;2022-07-22T10:53:14;29.00;99.90
21318;DHT22;10818;50.830;6.524;2022-07-22T10:58:38;29.60;99.90
21318;DHT22;10818;50.830;6.524;2022-07-22T11:03:41;29.70;99.90
21318;DHT22;10818;50.830;6.524;2022-07-22T11:08:42;29.90;99.90
21318;DHT22;10818;50.830;6.524;2022-07-22T11:13:43;30.00;99.90
21318;DHT22;10818;50.830;6.524;2022-07-22T11:18:45;30.00;99.50
21318;DHT22;10818;50.830;6.524;2022-07-22T11:23:47;30.10;99.50
21318;DHT22;10818;50.830;6.524;2022-07-22T11:28:47;30.00;99.40
21318;DHT22;10818;50.830;6.524;2022-07-22T11:33:48;29.80;99.10
21318;DHT22;10818;50.830;6.524;2022-07-22T11:38:49;29.70;99.00
21318;DHT22;10818;50.830;6.524;2022-07-22T11:43:49;29.70;99.30
21318;DHT22;10818;50.830;6.524;2022-07-22T11:48:50;30.00;99.90
21318;DHT22;10818;50.830;6.524;2022-07-22T11:53:50;30.20;99.80
21318;DHT22;10818;50.830;6.524;2022-07-22T11:58:51;30.70;98.50
21318;DHT22;10818;50.830;6.524;2022-07-22T12:03:58;31.10;98.00
21318;DHT22;10818;50.830;6.524;2022-07-22T12:14:27;31.30;97.20
21318;DHT22;10818;50.830;6.524;2022-07-22T12:19:30;31.30;96.80
21318;DHT22;10818;50.830;6.524;2022-07-22T12:24:31;31.50;96.30
21318;DHT22;10818;50.830;6.524;2022-07-22T12:39:36;31.20;96.00
21318;DHT22;10818;50.830;6.524;2022-07-22T12:44:36;31.20;96.10
21318;DHT22;10818;50.830;6.524;2022-07-22T12:49:37;31.30;95.20
21318;DHT22;10818;50.830;6.524;2022-07-22T12:54:38;31.50;95.60
21318;DHT22;10818;50.830;6.524;2022-07-22T12:59:38;31.60;95.30
21318;DHT22;10818;50.830;6.524;2022-07-22T13:04:39;31.40;95.70
21318;DHT22;10818;50.830;6.524;2022-07-22T13:09:39;31.30;95.50
21318;DHT22;10818;50.830;6.524;2022-07-22T13:14:40;30.60;94.90
21318;DHT22;10818;50.830;6.524;2022-07-22T13:19:40;30.50;96.40
21318;DHT22;10818;50.830;6.524;2022-07-22T13:24:41;30.60;96.40
21318;DHT22;10818;50.830;6.524;2022-07-22T13:29:41;31.00;95.80
21318;DHT22;10818;50.830;6.524;2022-07-22T13:34:41;31.10;95.80
21318;DHT22;10818;50.830;6.524;2022-07-22T13:39:42;31.10;95.40
21318;DHT22;10818;50.830;6.524;2022-07-22T13:44:46;31.30;94.90
21318;DHT22;10818;50.830;6.524;2022-07-22T13:49:47;31.40;94.90
21318;DHT22;10818;50.830;6.524;2022-07-22T13:54:47;31.60;94.90
21318;DHT22;10818;50.830;6.524;2022-07-22T13:59:48;31.40;94.60
21318;DHT22;10818;50.830;6.524;2022-07-22T14:04:48;31.40;94.70
21318;DHT22;10818;50.830;6.524;2022-07-22T14:09:48;31.90;94.50
21318;DHT22;10818;50.830;6.524;2022-07-22T14:14:49;31.70;94.00
21318;DHT22;10818;50.830;6.524;2022-07-22T14:19:49;31.30;94.10
21318;DHT22;10818;50.830;6.524;2022-07-22T14:24:50;31.20;94.80
21318;DHT22;10818;50.830;6.524;2022-07-22T14:29:50;30.80;93.80
21318;DHT22;10818;50.830;6.524;2022-07-22T14:34:51;30.30;95.10
21318;DHT22;10818;50.830;6.524;2022-07-22T14:39:51;30.40;95.40
21318;DHT22;10818;50.830;6.524;2022-07-22T14:44:51;30.50;95.40
21318;DHT22;10818;50.830;6.524;2022-07-22T14:49:52;30.30;95.00
21318;DHT22;10818;50.830;6.524;2022-07-22T14:54:52;30.10;95.30
21318;DHT22;10818;50.830;6.524;2022-07-22T14:59:53;30.20;95.30
21318;DHT22;10818;50.830;6.524;2022-07-22T15:04:53;30.30;95.30
21318;DHT22;10818;50.830;6.524;2022-07-22T15:09:54;30.20;95.10
21318;DHT22;10818;50.830;6.524;2022-07-22T15:14:54;30.10;95.10
21318;DHT22;10818;50.830;6.524;2022-07-22T15:19:55;30.10;95.20
21318;DHT22;10818;50.830;6.524;2022-07-22T15:24:55;29.90;95.70
21318;DHT22;10818;50.830;6.524;2022-07-22T15:29:55;29.70;95.90
21318;DHT22;10818;50.830;6.524;2022-07-22T15:34:56;29.50;96.50
21318;DHT22;10818;50.830;6.524;2022-07-22T15:39:56;29.60;96.50
21318;DHT22;10818;50.830;6.524;2022-07-22T15:44:57;29.60;96.70
21318;DHT22;10818;50.830;6.524;2022-07-22T15:49:57;29.50;96.40
21318;DHT22;10818;50.830;6.524;2022-07-22T15:54:58;29.20;96.90
21318;DHT22;10818;50.830;6.524;2022-07-22T15:59:58;29.20;96.90
21318;DHT22;10818;50.830;6.524;2022-07-22T16:04:59;29.20;95.40
21318;DHT22;10818;50.830;6.524;2022-07-22T16:10:00;29.10;96.70
21318;DHT22;10818;50.830;6.524;2022-07-22T16:15:00;28.80;96.90
21318;DHT22;10818;50.830;6.524;2022-07-22T16:20:01;28.60;96.90
21318;DHT22;10818;50.830;6.524;2022-07-22T16:25:02;28.40;97.20
21318;DHT22;10818;50.830;6.524;2022-07-22T16:30:02;28.10;97.40
21318;DHT22;10818;50.830;6.524;2022-07-22T16:35:03;27.80;97.90
21318;DHT22;10818;50.830;6.524;2022-07-22T16:40:04;27.50;97.90
21318;DHT22;10818;50.830;6.524;2022-07-22T16:45:05;27.40;98.60
21318;DHT22;10818;50.830;6.524;2022-07-22T16:50:06;27.20;98.70
21318;DHT22;10818;50.830;6.524;2022-07-22T16:55:08;27.00;98.50
21318;DHT22;10818;50.830;6.524;2022-07-22T17:00:09;26.90;98.60
21318;DHT22;10818;50.830;6.524;2022-07-22T17:05:10;26.70;98.70
21318;DHT22;10818;50.830;6.524;2022-07-22T17:10:10;26.50;99.30
21318;DHT22;10818;50.830;6.524;2022-07-22T17:15:11;26.40;99.20
21318;DHT22;10818;50.830;6.524;2022-07-22T17:20:11;26.20;98.90
21318;DHT22;10818;50.830;6.524;2022-07-22T17:25:15;26.10;99.50
21318;DHT22;10818;50.830;6.524;2022-07-22T17:30:16;26.00;99.60
21318;DHT22;10818;50.830;6.524;2022-07-22T17:35:17;25.90;99.80
21318;DHT22;10818;50.830;6.524;2022-07-22T17:40:17;25.80;99.90
21318;DHT22;10818;50.830;6.524;2022-07-22T17:45:18;25.60;99.90
21318;DHT22;10818;50.830;6.524;2022-07-22T17:50:18;25.50;99.90
21318;DHT22;10818;50.830;6.524;2022-07-22T17:55:18;25.40;99.90
21318;DHT22;10818;50.830;6.524;2022-07-22T18:00:19;25.20;99.90
21318;DHT22;10818;50.830;6.524;2022-07-22T18:05:19;25.10;99.90
21318;DHT22;10818;50.830;6.524;2022-07-22T18:10:20;25.10;99.90
21318;DHT22;10818;50.830;6.524;2022-07-22T18:15:20;25.00;99.90
21318;DHT22;10818;50.830;6.524;2022-07-22T18:20:21;24.90;99.90
21318;DHT22;10818;50.830;6.524;2022-07-22T18:25:21;24.80;99.90
21318;DHT22;10818;50.830;6.524;2022-07-22T18:30:22;24.80;99.90
21318;DHT22;10818;50.830;6.524;2022-07-22T18:35:22;24.70;99.90
21318;DHT22;10818;50.830;6.524;2022-07-22T18:40:23;24.60;99.90
21318;DHT22;10818;50.830;6.524;2022-07-22T18:45:24;24.50;99.90
21318;DHT22;10818;50.830;6.524;2022-07-22T18:50:24;24.40;99.90
21318;DHT22;10818;50.830;6.524;2022-07-22T18:55:25;24.20;99.90
21318;DHT22;10818;50.830;6.524;2022-07-22T19:00:26;24.10;99.90
21318;DHT22;10818;50.830;6.524;2022-07-22T19:05:26;24.00;99.90
21318;DHT22;10818;50.830;6.524;2022-07-22T19:10:27;23.90;99.90
21318;DHT22;10818;50.830;6.524;2022-07-22T19:15:27;23.80;99.90
21318;DHT22;10818;50.830;6.524;2022-07-22T19:20:28;23.70;99.90
21318;DHT22;10818;50.830;6.524;2022-07-22T19:25:28;23.60;99.90
21318;DHT22;10818;50.830;6.524;2022-07-22T19:30:29;23.60;99.90
21318;DHT22;10818;50.830;6.524;2022-07-22T19:35:29;23.50;99.90
21318;DHT22;10818;50.830;6.524;2022-07-22T19:40:30;23.40;99.90
21318;DHT22;10818;50.830;6.524;2022-07-22T19:45:30;23.30;99.90
21318;DHT22;10818;50.830;6.524;2022-07-22T19:50:31;23.30;99.90
21318;DHT22;10818;50.830;6.524;2022-07-22T19:55:33;23.20;99.90
21318;DHT22;10818;50.830;6.524;2022-07-22T20:00:33;23.10;99.90
21318;DHT22;10818;50.830;6.524;2022-07-22T20:05:34;23.10;99.90
21318;DHT22;10818;50.830;6.524;2022-07-22T20:10:34;23.00;99.90
21318;DHT22;10818;50.830;6.524;2022-07-22T20:15:35;23.00;99.90
21318;DHT22;10818;50.830;6.524;2022-07-22T20:20:35;22.90;99.90
21318;DHT22;10818;50.830;6.524;2022-07-22T20:25:38;22.90;99.90
21318;DHT22;10818;50.830;6.524;2022-07-22T20:30:38;22.80;99.90
21318;DHT22;10818;50.830;6.524;2022-07-22T20:35:39;22.80;99.90
21318;DHT22;10818;50.830;6.524;2022-07-22T20:40:39;22.70;99.90
21318;DHT22;10818;50.830;6.524;2022-07-22T20:45:40;22.60;99.90
21318;DHT22;10818;50.830;6.524;2022-07-22T20:50:40;22.50;99.90
21318;DHT22;10818;50.830;6.524;2022-07-22T20:55:41;22.40;99.90
21318;DHT22;10818;50.830;6.524;2022-07-22T21:00:41;22.30;99.90
21318;DHT22;10818;50.830;6.524;2022-07-22T21:05:43;22.30;99.90
21318;DHT22;10818;50.830;6.524;2022-07-22T21:10:44;22.30;99.90
21318;DHT22;10818;50.830;6.524;2022-07-22T21:15:44;22.10;99.90
21318;DHT22;10818;50.830;6.524;2022-07-22T21:20:45;22.10;99.90
21318;DHT22;10818;50.830;6.524;2022-07-22T21:25:45;22.10;99.90
21318;DHT22;10818;50.830;6.524;2022-07-22T21:30:46;22.10;99.90
21318;DHT22;10818;50.830;6.524;2022-07-22T21:35:46;22.10;99.90
21318;DHT22;10818;50.830;6.524;2022-07-22T21:40:47;22.00;99.90
21318;DHT22;10818;50.830;6.524;2022-07-22T21:45:47;22.00;99.90
21318;DHT22;10818;50.830;6.524;2022-07-22T21:50:51;22.00;99.90
21318;DHT22;10818;50.830;6.524;2022-07-22T21:55:51;22.00;99.90
21318;DHT22;10818;50.830;6.524;2022-07-22T22:01:10;22.00;99.90
21318;DHT22;10818;50.830;6.524;2022-07-22T22:06:11;21.90;99.90
21318;DHT22;10818;50.830;6.524;2022-07-22T22:11:11;21.90;99.90
21318;DHT22;10818;50.830;6.524;2022-07-22T22:16:12;21.90;99.90
21318;DHT22;10818;50.830;6.524;2022-07-22T22:21:12;21.90;99.90
21318;DHT22;10818;50.830;6.524;2022-07-22T22:26:13;21.80;99.90
21318;DHT22;10818;50.830;6.524;2022-07-22T22:31:14;21.70;99.90
21318;DHT22;10818;50.830;6.524;2022-07-22T22:36:14;21.50;99.90
21318;DHT22;10818;50.830;6.524;2022-07-22T22:41:15;21.40;99.90
21318;DHT22;10818;50.830;6.524;2022-07-22T22:46:15;21.40;99.90
21318;DHT22;10818;50.830;6.524;2022-07-22T22:51:16;21.30;99.90
21318;DHT22;10818;50.830;6.524;2022-07-22T22:56:16;21.20;99.90
21318;DHT22;10818;50.830;6.524;2022-07-22T23:01:17;21.00;99.90
21318;DHT22;10818;50.830;6.524;2022-07-22T23:06:17;20.90;99.90
21318;DHT22;10818;50.830;6.524;2022-07-22T23:11:18;20.80;99.90
21318;DHT22;10818;50.830;6.524;2022-07-22T23:16:18;20.70;99.90
21318;DHT22;10818;50.830;6.524;2022-07-22T23:21:18;20.60;99.90
21318;DHT22;10818;50.830;6.524;2022-07-22T23:26:19;20.50;99.90
21318;DHT22;10818;50.830;6.524;2022-07-22T23:31:19;20.40;99.90
21318;DHT22;10818;50.830;6.524;2022-07-22T23:36:20;20.40;99.90
21318;DHT22;10818;50.830;6.524;2022-07-22T23:41:21;20.30;99.90
21318;DHT22;10818;50.830;6.524;2022-07-22T23:46:21;20.10;99.90
21318;DHT22;10818;50.830;6.524;2022-07-22T23:51:21;20.20;99.90
21318;DHT22;10818;50.830;6.524;2022-07-22T23:56:23;20.10;99.90
